createdAt,value
2023-05-06T00:00:08.552Z,1013.74
2023-05-06T00:01:08.532Z,1013.74
2023-05-06T00:02:08.561Z,1013.73
2023-05-06T00:03:08.643Z,1013.71
2023-05-06T00:04:08.676Z,1013.70
2023-05-06T00:05:08.859Z,1013.66
2023-05-06T00:06:08.523Z,1013.67
2023-05-06T00:07:08.530Z,1013.65
2023-05-06T00:08:08.540Z,1013.65
2023-05-06T00:09:08.531Z,1013.65
2023-05-06T00:10:08.522Z,1013.64
2023-05-06T00:11:08.533Z,1013.66
2023-05-06T00:12:08.545Z,1013.64
2023-05-06T00:13:08.566Z,1013.61
2023-05-06T00:14:08.516Z,1013.66
2023-05-06T00:15:08.697Z,1013.64
2023-05-06T00:16:08.562Z,1013.61
2023-05-06T00:17:08.524Z,1013.64
2023-05-06T00:18:08.721Z,1013.60
2023-05-06T00:19:08.533Z,1013.65
2023-05-06T00:20:08.517Z,1013.71
2023-05-06T00:21:08.518Z,1013.68
2023-05-06T00:22:08.514Z,1013.61
2023-05-06T00:23:08.523Z,1013.65
2023-05-06T00:24:08.524Z,1013.63
2023-05-06T00:25:08.701Z,1013.65
2023-05-06T00:26:08.530Z,1013.64
2023-05-06T00:27:08.520Z,1013.59
2023-05-06T00:28:08.513Z,1013.61
2023-05-06T00:29:08.526Z,1013.61
2023-05-06T00:30:08.530Z,1013.60
2023-05-06T00:31:08.528Z,1013.58
2023-05-06T00:32:08.583Z,1013.59
2023-05-06T00:33:08.557Z,1013.58
2023-05-06T00:34:08.610Z,1013.57
2023-05-06T00:35:08.779Z,1013.52
2023-05-06T00:36:08.515Z,1013.55
2023-05-06T00:37:08.518Z,1013.59
2023-05-06T00:38:08.512Z,1013.54
2023-05-06T00:39:08.574Z,1013.52
2023-05-06T00:40:08.511Z,1013.56
2023-05-06T00:41:08.511Z,1013.56
2023-05-06T00:42:08.521Z,1013.55
2023-05-06T00:43:08.510Z,1013.59
2023-05-06T00:44:08.508Z,1013.56
2023-05-06T00:45:08.838Z,1013.60
2023-05-06T00:46:08.593Z,1013.56
2023-05-06T00:47:08.507Z,1013.53
2023-05-06T00:48:08.541Z,1013.54
2023-05-06T00:49:08.512Z,1013.53
2023-05-06T00:50:08.658Z,1013.51
2023-05-06T00:51:08.511Z,1013.46
2023-05-06T00:52:08.515Z,1013.47
2023-05-06T00:53:08.512Z,1013.48
2023-05-06T00:54:08.506Z,1013.49
2023-05-06T00:55:08.661Z,1013.47
2023-05-06T00:56:08.515Z,1013.49
2023-05-06T00:57:08.511Z,1013.47
2023-05-06T00:58:08.500Z,1013.53
2023-05-06T00:59:08.505Z,1013.48
2023-05-06T01:00:08.506Z,1013.47
2023-05-06T01:01:08.562Z,1013.45
2023-05-06T01:02:08.519Z,1013.47
2023-05-06T01:03:08.553Z,1013.44
2023-05-06T01:04:08.536Z,1013.44
2023-05-06T01:05:08.681Z,1013.44
2023-05-06T01:06:08.588Z,1013.42
2023-05-06T01:07:08.514Z,1013.36
2023-05-06T01:08:08.512Z,1013.40
2023-05-06T01:09:08.512Z,1013.40
2023-05-06T01:10:08.496Z,1013.42
2023-05-06T01:11:08.499Z,1013.38
2023-05-06T01:12:08.502Z,1013.33
2023-05-06T01:13:08.561Z,1013.31
2023-05-06T01:14:08.522Z,1013.33
2023-05-06T01:15:08.893Z,1013.24
2023-05-06T01:16:08.504Z,1013.25
2023-05-06T01:17:08.611Z,1013.24
2023-05-06T01:18:08.535Z,1013.22
2023-05-06T01:19:08.502Z,1013.18
2023-05-06T01:20:08.507Z,1013.18
2023-05-06T01:21:08.500Z,1013.19
2023-05-06T01:22:08.586Z,1013.15
2023-05-06T01:23:08.499Z,1013.20
2023-05-06T01:24:08.498Z,1013.10
2023-05-06T01:25:08.747Z,1013.09
2023-05-06T01:26:08.498Z,1013.12
2023-05-06T01:27:08.497Z,1013.09
2023-05-06T01:28:08.491Z,1013.10
2023-05-06T01:29:08.500Z,1013.12
2023-05-06T01:30:08.491Z,1013.10
2023-05-06T01:31:08.548Z,1013.12
2023-05-06T01:32:08.495Z,1013.15
2023-05-06T01:33:08.507Z,1013.10
2023-05-06T01:34:08.496Z,1013.08
2023-05-06T01:35:08.798Z,1013.12
2023-05-06T01:36:08.497Z,1013.07
2023-05-06T01:37:08.491Z,1013.04
2023-05-06T01:38:08.641Z,1013.04
2023-05-06T01:39:08.494Z,1013.02
2023-05-06T01:40:08.491Z,1012.99
2023-05-06T01:41:08.492Z,1012.97
2023-05-06T01:42:08.495Z,1012.96
2023-05-06T01:43:08.492Z,1012.96
2023-05-06T01:44:08.501Z,1012.97
2023-05-06T01:45:08.717Z,1012.99
2023-05-06T01:46:08.489Z,1012.96
2023-05-06T01:47:08.496Z,1012.99
2023-05-06T01:48:08.499Z,1013.04
2023-05-06T01:49:08.484Z,1013.03
2023-05-06T01:50:08.479Z,1013.05
2023-05-06T01:51:08.485Z,1013.01
2023-05-06T01:52:08.488Z,1013.09
2023-05-06T01:53:08.494Z,1013.09
2023-05-06T01:54:08.582Z,1013.06
2023-05-06T01:55:08.813Z,1013.07
2023-05-06T01:56:08.485Z,1013.08
2023-05-06T01:57:08.476Z,1013.00
2023-05-06T01:58:08.480Z,1013.03
2023-05-06T01:59:08.498Z,1013.04
2023-05-06T02:00:08.475Z,1013.04
2023-05-06T02:01:08.483Z,1013.03
2023-05-06T02:02:08.486Z,1013.02
2023-05-06T02:03:08.592Z,1012.96
2023-05-06T02:04:08.516Z,1012.95
2023-05-06T02:05:08.637Z,1012.93
2023-05-06T02:06:08.470Z,1012.97
2023-05-06T02:07:08.471Z,1012.89
2023-05-06T02:08:08.469Z,1012.90
2023-05-06T02:09:08.475Z,1012.90
2023-05-06T02:10:08.562Z,1012.88
2023-05-06T02:11:08.471Z,1012.86
2023-05-06T02:12:08.466Z,1012.85
2023-05-06T02:13:08.547Z,1012.84
2023-05-06T02:14:08.473Z,1012.84
2023-05-06T02:15:08.629Z,1012.79
2023-05-06T02:16:08.509Z,1012.78
2023-05-06T02:17:08.468Z,1012.78
2023-05-06T02:18:08.470Z,1012.75
2023-05-06T02:19:08.460Z,1012.75
2023-05-06T02:20:08.459Z,1012.78
2023-05-06T02:21:08.460Z,1012.80
2023-05-06T02:22:08.457Z,1012.81
2023-05-06T02:23:08.466Z,1012.79
2023-05-06T02:24:08.461Z,1012.81
2023-05-06T02:25:08.622Z,1012.79
2023-05-06T02:26:08.551Z,1012.81
2023-05-06T02:27:08.454Z,1012.86
2023-05-06T02:28:08.464Z,1012.81
2023-05-06T02:29:08.449Z,1012.81
2023-05-06T02:30:08.451Z,1012.83
2023-05-06T02:31:08.475Z,1012.80
2023-05-06T02:32:08.450Z,1012.79
2023-05-06T02:33:08.445Z,1012.78
2023-05-06T02:34:08.448Z,1012.78
2023-05-06T02:35:08.700Z,1012.79
2023-05-06T02:36:08.447Z,1012.73
2023-05-06T02:37:08.445Z,1012.71
2023-05-06T02:38:08.447Z,1012.70
2023-05-06T02:39:08.444Z,1012.68
2023-05-06T02:40:08.456Z,1012.72
2023-05-06T02:41:08.446Z,1012.74
2023-05-06T02:42:08.551Z,1012.71
2023-05-06T02:43:08.448Z,1012.77
2023-05-06T02:44:08.436Z,1012.80
2023-05-06T02:45:08.693Z,1012.83
2023-05-06T02:46:08.562Z,1012.88
2023-05-06T02:47:08.431Z,1012.89
2023-05-06T02:48:08.439Z,1012.97
2023-05-06T02:49:08.433Z,1012.97
2023-05-06T02:50:08.445Z,1012.99
2023-05-06T02:51:08.435Z,1012.98
2023-05-06T02:52:08.438Z,1012.98
2023-05-06T02:53:08.444Z,1012.97
2023-05-06T02:54:08.435Z,1013.02
2023-05-06T02:55:08.729Z,1013.00
2023-05-06T02:56:08.444Z,1012.98
2023-05-06T02:57:08.430Z,1012.95
2023-05-06T02:58:08.528Z,1012.97
2023-05-06T02:59:08.430Z,1012.99
2023-05-06T03:00:08.421Z,1012.94
2023-05-06T03:01:08.454Z,1012.93
2023-05-06T03:02:08.531Z,1012.95
2023-05-06T03:03:08.513Z,1012.96
2023-05-06T03:04:08.446Z,1012.92
2023-05-06T03:05:08.731Z,1012.93
2023-05-06T03:06:08.416Z,1012.91
2023-05-06T03:07:08.412Z,1012.90
2023-05-06T03:08:08.412Z,1012.89
2023-05-06T03:09:08.407Z,1012.85
2023-05-06T03:10:08.404Z,1012.85
2023-05-06T03:11:08.497Z,1012.87
2023-05-06T03:12:08.417Z,1012.89
2023-05-06T03:13:08.561Z,1012.84
2023-05-06T03:14:08.576Z,1012.79
2023-05-06T03:15:08.705Z,1012.80
2023-05-06T03:16:08.442Z,1012.76
2023-05-06T03:17:08.413Z,1012.78
2023-05-06T03:18:08.460Z,1012.78
2023-05-06T03:19:08.393Z,1012.77
2023-05-06T03:20:08.393Z,1012.79
2023-05-06T03:21:08.534Z,1012.80
2023-05-06T03:22:08.396Z,1012.80
2023-05-06T03:23:08.400Z,1012.81
2023-05-06T03:24:08.388Z,1012.83
2023-05-06T03:25:08.648Z,1012.81
2023-05-06T03:26:08.404Z,1012.79
2023-05-06T03:27:08.386Z,1012.83
2023-05-06T03:28:08.380Z,1012.80
2023-05-06T03:29:08.398Z,1012.83
2023-05-06T03:30:08.464Z,1012.79
2023-05-06T03:31:08.474Z,1012.76
2023-05-06T03:32:08.419Z,1012.75
2023-05-06T03:33:08.406Z,1012.75
2023-05-06T03:34:08.380Z,1012.72
2023-05-06T03:35:08.646Z,1012.66
2023-05-06T03:36:08.380Z,1012.65
2023-05-06T03:37:08.371Z,1012.63
2023-05-06T03:38:08.371Z,1012.58
2023-05-06T03:39:08.365Z,1012.58
2023-05-06T03:40:08.364Z,1012.54
2023-05-06T03:41:08.366Z,1012.53
2023-05-06T03:42:09.635Z,1012.54
2023-05-06T03:43:08.363Z,1012.55
2023-05-06T03:44:08.366Z,1012.57
2023-05-06T03:45:08.866Z,1012.58
2023-05-06T03:46:08.494Z,1012.58
2023-05-06T03:47:08.357Z,1012.57
2023-05-06T03:48:08.430Z,1012.61
2023-05-06T03:49:08.356Z,1012.60
2023-05-06T03:50:08.378Z,1012.58
2023-05-06T03:51:08.357Z,1012.57
2023-05-06T03:52:08.357Z,1012.60
2023-05-06T03:53:08.350Z,1012.63
2023-05-06T03:54:08.344Z,1012.56
2023-05-06T03:55:08.641Z,1012.56
2023-05-06T03:56:08.341Z,1012.55
2023-05-06T03:57:08.346Z,1012.53
2023-05-06T03:58:08.336Z,1012.61
2023-05-06T03:59:08.343Z,1012.56
2023-05-06T04:00:08.335Z,1012.59
2023-05-06T04:01:08.344Z,1012.59
2023-05-06T04:02:08.388Z,1012.55
2023-05-06T04:03:08.503Z,1012.58
2023-05-06T04:04:08.371Z,1012.58
2023-05-06T04:05:08.564Z,1012.55
2023-05-06T04:06:08.326Z,1012.57
2023-05-06T04:07:08.338Z,1012.59
2023-05-06T04:08:08.334Z,1012.58
2023-05-06T04:09:08.320Z,1012.60
2023-05-06T04:10:08.357Z,1012.59
2023-05-06T04:11:08.327Z,1012.60
2023-05-06T04:12:08.323Z,1012.60
2023-05-06T04:13:08.376Z,1012.58
2023-05-06T04:14:08.309Z,1012.65
2023-05-06T04:15:08.446Z,1012.64
2023-05-06T04:16:08.368Z,1012.63
2023-05-06T04:17:08.315Z,1012.61
2023-05-06T04:18:08.406Z,1012.60
2023-05-06T04:19:08.343Z,1012.66
2023-05-06T04:20:08.303Z,1012.67
2023-05-06T04:21:08.327Z,1012.61
2023-05-06T04:22:08.299Z,1012.68
2023-05-06T04:23:08.303Z,1012.63
2023-05-06T04:24:08.311Z,1012.65
2023-05-06T04:25:08.532Z,1012.60
2023-05-06T04:26:08.300Z,1012.63
2023-05-06T04:27:08.296Z,1012.58
2023-05-06T04:28:08.295Z,1012.61
2023-05-06T04:29:08.301Z,1012.55
2023-05-06T04:30:08.289Z,1012.56
2023-05-06T04:31:08.289Z,1012.57
2023-05-06T04:32:08.332Z,1012.55
2023-05-06T04:33:08.333Z,1012.59
2023-05-06T04:34:08.386Z,1012.57
2023-05-06T04:35:08.397Z,1012.62
2023-05-06T04:36:08.289Z,1012.60
2023-05-06T04:37:08.279Z,1012.63
2023-05-06T04:38:08.291Z,1012.62
2023-05-06T04:39:08.277Z,1012.63
2023-05-06T04:40:08.284Z,1012.69
2023-05-06T04:41:08.281Z,1012.66
2023-05-06T04:42:08.288Z,1012.67
2023-05-06T04:43:08.282Z,1012.76
2023-05-06T04:44:08.273Z,1012.72
2023-05-06T04:45:08.441Z,1012.69
2023-05-06T04:46:08.364Z,1012.69
2023-05-06T04:47:08.268Z,1012.70
2023-05-06T04:48:08.289Z,1012.73
2023-05-06T04:49:08.813Z,1012.73
2023-05-06T04:50:08.412Z,1012.75
2023-05-06T04:51:08.262Z,1012.74
2023-05-06T04:52:08.267Z,1012.77
2023-05-06T04:53:08.260Z,1012.76
2023-05-06T04:54:08.261Z,1012.77
2023-05-06T04:55:08.452Z,1012.74
2023-05-06T04:56:08.266Z,1012.74
2023-05-06T04:57:08.270Z,1012.75
2023-05-06T04:58:08.251Z,1012.77
2023-05-06T04:59:08.259Z,1012.78
2023-05-06T05:00:08.533Z,1012.76
2023-05-06T05:01:08.263Z,1012.76
2023-05-06T05:02:08.286Z,1012.79
2023-05-06T05:03:08.347Z,1012.83
2023-05-06T05:04:08.250Z,1012.80
2023-05-06T05:05:08.363Z,1012.86
2023-05-06T05:06:08.341Z,1012.86
2023-05-06T05:07:08.237Z,1012.85
2023-05-06T05:08:08.236Z,1012.89
2023-05-06T05:09:08.241Z,1012.87
2023-05-06T05:10:08.234Z,1012.89
2023-05-06T05:11:08.235Z,1012.92
2023-05-06T05:12:08.231Z,1012.93
2023-05-06T05:13:08.259Z,1012.96
2023-05-06T05:14:08.234Z,1012.96
2023-05-06T05:15:08.417Z,1012.97
2023-05-06T05:16:08.233Z,1012.96
2023-05-06T05:17:08.376Z,1012.98
2023-05-06T05:18:08.298Z,1012.97
2023-05-06T05:19:09.366Z,1012.99
2023-05-06T05:20:08.236Z,1013.01
2023-05-06T05:21:08.214Z,1012.97
2023-05-06T05:22:08.307Z,1012.95
2023-05-06T05:23:08.213Z,1013.10
2023-05-06T05:24:08.221Z,1013.03
2023-05-06T05:25:08.705Z,1013.06
2023-05-06T05:26:08.212Z,1013.03
2023-05-06T05:27:08.209Z,1013.00
2023-05-06T05:28:08.216Z,1013.03
2023-05-06T05:29:08.214Z,1013.00
2023-05-06T05:30:08.220Z,1013.02
2023-05-06T05:31:10.354Z,1013.05
2023-05-06T05:32:08.220Z,1013.03
2023-05-06T05:33:08.300Z,1013.00
2023-05-06T05:34:08.223Z,1013.04
2023-05-06T05:35:08.507Z,1013.04
2023-05-06T05:36:08.203Z,1013.06
2023-05-06T05:37:08.201Z,1013.06
2023-05-06T05:38:08.314Z,1013.06
2023-05-06T05:39:08.200Z,1013.02
2023-05-06T05:40:08.202Z,1013.02
2023-05-06T05:41:08.192Z,1013.00
2023-05-06T05:42:08.194Z,1013.01
2023-05-06T05:43:08.190Z,1013.05
2023-05-06T05:44:08.190Z,1013.04
2023-05-06T05:45:08.401Z,1013.04
2023-05-06T05:46:08.245Z,1013.06
2023-05-06T05:47:08.195Z,1013.04
2023-05-06T05:48:08.194Z,1013.08
2023-05-06T05:49:08.185Z,1013.07
2023-05-06T05:50:08.182Z,1013.09
2023-05-06T05:51:08.180Z,1013.08
2023-05-06T05:52:08.192Z,1013.04
2023-05-06T05:53:08.183Z,1013.04
2023-05-06T05:54:08.209Z,1013.11
2023-05-06T05:55:08.311Z,1013.11
2023-05-06T05:56:08.175Z,1013.14
2023-05-06T05:57:08.189Z,1013.10
2023-05-06T05:58:08.176Z,1013.13
2023-05-06T05:59:08.179Z,1013.09
2023-05-06T06:00:08.172Z,1013.13
2023-05-06T06:01:08.166Z,1013.18
2023-05-06T06:02:08.169Z,1013.15
2023-05-06T06:03:08.286Z,1013.19
2023-05-06T06:04:08.231Z,1013.18
2023-05-06T06:05:08.325Z,1013.15
2023-05-06T06:06:08.162Z,1013.26
2023-05-06T06:07:08.180Z,1013.21
2023-05-06T06:08:08.161Z,1013.20
2023-05-06T06:09:08.165Z,1013.17
2023-05-06T06:10:08.190Z,1013.20
2023-05-06T06:11:08.153Z,1013.19
2023-05-06T06:12:08.161Z,1013.19
2023-05-06T06:13:08.251Z,1013.22
2023-05-06T06:14:08.161Z,1013.21
2023-05-06T06:15:08.425Z,1013.21
2023-05-06T06:16:08.258Z,1013.16
2023-05-06T06:17:08.151Z,1013.21
2023-05-06T06:18:08.221Z,1013.20
2023-05-06T06:19:08.147Z,1013.19
2023-05-06T06:20:08.146Z,1013.25
2023-05-06T06:21:08.144Z,1013.22
2023-05-06T06:22:08.151Z,1013.21
2023-05-06T06:23:08.141Z,1013.21
2023-05-06T06:24:08.154Z,1013.24
2023-05-06T06:25:08.338Z,1013.23
2023-05-06T06:26:09.178Z,1013.22
2023-05-06T06:27:08.149Z,1013.20
2023-05-06T06:28:08.137Z,1013.20
2023-05-06T06:29:08.137Z,1013.21
2023-05-06T06:30:08.145Z,1013.20
2023-05-06T06:31:08.141Z,1013.20
2023-05-06T06:32:08.192Z,1013.25
2023-05-06T06:33:08.161Z,1013.27
2023-05-06T06:34:08.143Z,1013.26
2023-05-06T06:35:08.317Z,1013.25
2023-05-06T06:36:08.132Z,1013.29
2023-05-06T06:37:08.137Z,1013.24
2023-05-06T06:38:08.132Z,1013.23
2023-05-06T06:39:08.128Z,1013.23
2023-05-06T06:40:08.130Z,1013.23
2023-05-06T06:41:08.122Z,1013.29
2023-05-06T06:42:08.291Z,1013.28
2023-05-06T06:43:08.124Z,1013.27
2023-05-06T06:44:08.125Z,1013.29
2023-05-06T06:45:08.307Z,1013.29
2023-05-06T06:46:08.187Z,1013.29
2023-05-06T06:47:08.119Z,1013.34
2023-05-06T06:48:08.142Z,1013.34
2023-05-06T06:49:08.116Z,1013.35
2023-05-06T06:50:08.121Z,1013.36
2023-05-06T06:51:08.114Z,1013.37
2023-05-06T06:52:08.114Z,1013.35
2023-05-06T06:53:08.117Z,1013.35
2023-05-06T06:54:08.116Z,1013.35
2023-05-06T06:55:08.360Z,1013.38
2023-05-06T06:56:08.125Z,1013.39
2023-05-06T06:57:08.111Z,1013.39
2023-05-06T06:58:08.134Z,1013.36
2023-05-06T06:59:08.125Z,1013.37
2023-05-06T07:00:08.114Z,1013.36
2023-05-06T07:01:08.166Z,1013.36
2023-05-06T07:02:08.110Z,1013.38
2023-05-06T07:03:08.155Z,1013.38
2023-05-06T07:04:08.122Z,1013.40
2023-05-06T07:05:08.272Z,1013.39
2023-05-06T07:06:08.117Z,1013.41
2023-05-06T07:07:08.104Z,1013.40
2023-05-06T07:08:08.108Z,1013.43
2023-05-06T07:09:08.105Z,1013.45
2023-05-06T07:10:08.097Z,1013.46
2023-05-06T07:11:08.098Z,1013.48
2023-05-06T07:12:08.100Z,1013.53
2023-05-06T07:13:08.124Z,1013.48
2023-05-06T07:14:08.241Z,1013.51
2023-05-06T07:15:08.241Z,1013.54
2023-05-06T07:16:08.108Z,1013.51
2023-05-06T07:17:08.121Z,1013.53
2023-05-06T07:18:08.143Z,1013.54
2023-05-06T07:19:08.088Z,1013.55
2023-05-06T07:20:08.104Z,1013.54
2023-05-06T07:21:08.083Z,1013.51
2023-05-06T07:22:08.092Z,1013.55
2023-05-06T07:23:08.094Z,1013.48
2023-05-06T07:24:08.096Z,1013.47
2023-05-06T07:25:08.212Z,1013.48
2023-05-06T07:26:08.085Z,1013.53
2023-05-06T07:27:08.089Z,1013.52
2023-05-06T07:28:08.091Z,1013.52
2023-05-06T07:29:08.075Z,1013.51
2023-05-06T07:30:08.197Z,1013.49
2023-05-06T07:31:08.118Z,1013.49
2023-05-06T07:32:08.090Z,1013.52
2023-05-06T07:33:08.109Z,1013.47
2023-05-06T07:34:08.095Z,1013.47
2023-05-06T07:35:08.224Z,1013.47
2023-05-06T07:36:08.074Z,1013.50
2023-05-06T07:37:08.070Z,1013.51
2023-05-06T07:38:08.073Z,1013.48
2023-05-06T07:39:08.074Z,1013.51
2023-05-06T07:40:08.078Z,1013.49
2023-05-06T07:41:08.088Z,1013.46
2023-05-06T07:42:08.078Z,1013.48
2023-05-06T07:43:08.077Z,1013.44
2023-05-06T07:44:08.072Z,1013.51
2023-05-06T07:45:08.122Z,1013.50
2023-05-06T07:46:08.210Z,1013.48
2023-05-06T07:47:08.232Z,1013.48
2023-05-06T07:48:08.110Z,1013.52
2023-05-06T07:49:08.062Z,1013.53
2023-05-06T07:50:08.071Z,1013.56
2023-05-06T07:51:08.084Z,1013.55
2023-05-06T07:52:08.082Z,1013.56
2023-05-06T07:53:08.060Z,1013.55
2023-05-06T07:54:08.065Z,1013.55
2023-05-06T07:55:08.108Z,1013.55
2023-05-06T07:56:08.074Z,1013.57
2023-05-06T07:57:08.062Z,1013.59
2023-05-06T07:58:08.072Z,1013.59
2023-05-06T07:59:08.061Z,1013.60
2023-05-06T08:00:08.058Z,1013.64
2023-05-06T08:01:08.054Z,1013.61
2023-05-06T08:02:08.126Z,1013.64
2023-05-06T08:03:08.170Z,1013.63
2023-05-06T08:04:08.113Z,1013.63
2023-05-06T08:05:08.193Z,1013.63
2023-05-06T08:06:08.053Z,1013.62
2023-05-06T08:07:08.052Z,1013.61
2023-05-06T08:08:08.053Z,1013.64
2023-05-06T08:09:08.053Z,1013.61
2023-05-06T08:10:08.062Z,1013.61
2023-05-06T08:11:08.053Z,1013.64
2023-05-06T08:12:08.058Z,1013.60
2023-05-06T08:13:08.070Z,1013.65
2023-05-06T08:14:08.050Z,1013.65
2023-05-06T08:15:08.265Z,1013.62
2023-05-06T08:16:08.077Z,1013.63
2023-05-06T08:17:08.050Z,1013.70
2023-05-06T08:18:20.749Z,1013.68
2023-05-06T08:19:08.045Z,1013.74
2023-05-06T08:20:08.052Z,1013.72
2023-05-06T08:21:08.044Z,1013.78
2023-05-06T08:22:08.045Z,1013.77
2023-05-06T08:23:08.045Z,1013.74
2023-05-06T08:24:08.042Z,1013.79
2023-05-06T08:25:08.163Z,1013.77
2023-05-06T08:26:08.040Z,1013.80
2023-05-06T08:27:08.037Z,1013.80
2023-05-06T08:28:08.052Z,1013.80
2023-05-06T08:29:08.043Z,1013.83
2023-05-06T08:30:08.036Z,1013.82
2023-05-06T08:31:08.048Z,1013.88
2023-05-06T08:32:08.053Z,1013.85
2023-05-06T08:33:08.082Z,1013.84
2023-05-06T08:34:08.188Z,1013.89
2023-05-06T08:35:08.191Z,1013.88
2023-05-06T08:36:08.037Z,1013.95
2023-05-06T08:37:08.038Z,1013.94
2023-05-06T08:38:08.038Z,1013.94
2023-05-06T08:39:08.027Z,1014.00
2023-05-06T08:40:08.051Z,1013.94
2023-05-06T08:41:08.026Z,1013.98
2023-05-06T08:42:08.039Z,1013.97
2023-05-06T08:43:08.046Z,1013.98
2023-05-06T08:44:08.026Z,1014.01
2023-05-06T08:45:08.071Z,1014.00
2023-05-06T08:46:08.050Z,1013.94
2023-05-06T08:47:08.029Z,1013.98
2023-05-06T08:48:08.041Z,1013.98
2023-05-06T08:49:08.030Z,1013.96
2023-05-06T08:50:08.186Z,1014.01
2023-05-06T08:51:08.030Z,1013.98
2023-05-06T08:52:08.028Z,1013.99
2023-05-06T08:53:08.032Z,1014.01
2023-05-06T08:54:08.019Z,1014.02
2023-05-06T08:55:08.112Z,1013.98
2023-05-06T08:56:08.034Z,1013.97
2023-05-06T08:57:10.290Z,1014.02
2023-05-06T08:58:08.019Z,1014.00
2023-05-06T08:59:08.023Z,1014.00
2023-05-06T09:00:08.016Z,1014.06
2023-05-06T09:01:08.058Z,1014.07
2023-05-06T09:02:08.045Z,1014.12
2023-05-06T09:03:08.063Z,1014.10
2023-05-06T09:04:08.021Z,1014.09
2023-05-06T09:05:08.084Z,1014.14
2023-05-06T09:06:08.142Z,1014.18
2023-05-06T09:07:08.015Z,1014.17
2023-05-06T09:08:08.010Z,1014.20
2023-05-06T09:09:08.019Z,1014.20
2023-05-06T09:10:08.128Z,1014.20
2023-05-06T09:11:08.017Z,1014.22
2023-05-06T09:12:08.004Z,1014.22
2023-05-06T09:13:08.036Z,1014.20
2023-05-06T09:14:08.017Z,1014.18
2023-05-06T09:15:08.212Z,1014.23
2023-05-06T09:16:08.004Z,1014.22
2023-05-06T09:17:08.114Z,1014.23
2023-05-06T09:18:08.063Z,1014.23
2023-05-06T09:19:08.020Z,1014.22
2023-05-06T09:20:08.011Z,1014.21
2023-05-06T09:21:08.018Z,1014.25
2023-05-06T09:22:08.098Z,1014.24
2023-05-06T09:23:08.002Z,1014.22
2023-05-06T09:24:08.009Z,1014.23
2023-05-06T09:25:08.148Z,1014.24
2023-05-06T09:26:08.001Z,1014.26
2023-05-06T09:27:10.211Z,1014.21
2023-05-06T09:28:07.997Z,1014.27
2023-05-06T09:29:08.002Z,1014.27
2023-05-06T09:30:07.994Z,1014.30
2023-05-06T09:31:08.060Z,1014.33
2023-05-06T09:32:07.997Z,1014.35
2023-05-06T09:33:08.054Z,1014.33
2023-05-06T09:34:08.009Z,1014.37
2023-05-06T09:35:08.179Z,1014.33
2023-05-06T09:36:07.995Z,1014.35
2023-05-06T09:37:08.019Z,1014.34
2023-05-06T09:38:08.111Z,1014.36
2023-05-06T09:39:08.010Z,1014.36
2023-05-06T09:40:08.000Z,1014.35
2023-05-06T09:41:08.007Z,1014.33
2023-05-06T09:42:07.992Z,1014.33
2023-05-06T09:43:07.996Z,1014.36
2023-05-06T09:44:08.003Z,1014.32
2023-05-06T09:45:08.122Z,1014.33
2023-05-06T09:46:08.037Z,1014.34
2023-05-06T09:47:08.004Z,1014.35
2023-05-06T09:48:08.024Z,1014.35
2023-05-06T09:49:07.999Z,1014.33
2023-05-06T09:50:07.993Z,1014.38
2023-05-06T09:51:08.006Z,1014.40
2023-05-06T09:52:07.995Z,1014.39
2023-05-06T09:53:07.999Z,1014.43
2023-05-06T09:54:08.125Z,1014.44
2023-05-06T09:55:08.103Z,1014.40
2023-05-06T09:56:07.991Z,1014.45
2023-05-06T09:57:07.991Z,1014.40
2023-05-06T09:58:07.988Z,1014.44
2023-05-06T09:59:07.990Z,1014.42
2023-05-06T10:00:08.036Z,1014.44
2023-05-06T10:01:08.056Z,1014.47
2023-05-06T10:02:08.003Z,1014.51
2023-05-06T10:03:08.297Z,1014.47
2023-05-06T10:04:08.514Z,1014.48
2023-05-06T10:05:08.126Z,1014.48
2023-05-06T10:06:07.993Z,1014.49
2023-05-06T10:07:07.993Z,1014.49
2023-05-06T10:08:08.006Z,1014.51
2023-05-06T10:09:07.987Z,1014.50
2023-05-06T10:10:08.069Z,1014.48
2023-05-06T10:11:07.981Z,1014.45
2023-05-06T10:12:07.983Z,1014.49
2023-05-06T10:13:08.024Z,1014.51
2023-05-06T10:14:07.988Z,1014.51
2023-05-06T10:15:08.063Z,1014.54
2023-05-06T10:16:08.052Z,1014.55
2023-05-06T10:17:07.986Z,1014.56
2023-05-06T10:18:08.022Z,1014.58
2023-05-06T10:19:07.980Z,1014.55
2023-05-06T10:20:07.976Z,1014.52
2023-05-06T10:21:07.981Z,1014.51
2023-05-06T10:22:07.980Z,1014.52
2023-05-06T10:23:07.993Z,1014.54
2023-05-06T10:24:07.975Z,1014.58
2023-05-06T10:25:08.070Z,1014.60
2023-05-06T10:26:08.074Z,1014.57
2023-05-06T10:27:07.972Z,1014.59
2023-05-06T10:28:09.797Z,1014.58
2023-05-06T10:29:07.972Z,1014.63
2023-05-06T10:30:07.976Z,1014.65
2023-05-06T10:31:07.970Z,1014.63
2023-05-06T10:32:07.977Z,1014.62
2023-05-06T10:33:08.170Z,1014.60
2023-05-06T10:34:07.981Z,1014.61
2023-05-06T10:35:08.099Z,1014.63
2023-05-06T10:36:08.048Z,1014.65
2023-05-06T10:37:07.969Z,1014.65
2023-05-06T10:38:07.963Z,1014.66
2023-05-06T10:39:07.968Z,1014.67
2023-05-06T10:40:07.964Z,1014.72
2023-05-06T10:41:07.960Z,1014.67
2023-05-06T10:42:08.088Z,1014.68
2023-05-06T10:43:07.966Z,1014.67
2023-05-06T10:44:07.959Z,1014.66
2023-05-06T10:45:08.058Z,1014.71
2023-05-06T10:46:08.136Z,1014.73
2023-05-06T10:47:07.958Z,1014.74
2023-05-06T10:48:08.013Z,1014.72
2023-05-06T10:49:07.965Z,1014.78
2023-05-06T10:50:07.953Z,1014.75
2023-05-06T10:51:07.961Z,1014.74
2023-05-06T10:52:07.957Z,1014.77
2023-05-06T10:53:07.967Z,1014.76
2023-05-06T10:54:07.950Z,1014.78
2023-05-06T10:55:08.049Z,1014.73
2023-05-06T10:56:07.973Z,1014.76
2023-05-06T10:57:07.964Z,1014.73
2023-05-06T10:58:07.982Z,1014.75
2023-05-06T10:59:08.245Z,1014.74
2023-05-06T11:00:07.955Z,1014.75
2023-05-06T11:01:08.049Z,1014.74
2023-05-06T11:02:08.008Z,1014.74
2023-05-06T11:03:08.273Z,1014.74
2023-05-06T11:04:07.951Z,1014.77
2023-05-06T11:05:07.969Z,1014.71
2023-05-06T11:06:07.945Z,1014.70
2023-05-06T11:07:07.948Z,1014.72
2023-05-06T11:08:07.948Z,1014.75
2023-05-06T11:09:07.964Z,1014.70
2023-05-06T11:10:07.973Z,1014.73
2023-05-06T11:11:07.960Z,1014.71
2023-05-06T11:12:07.945Z,1014.74
2023-05-06T11:13:07.971Z,1014.72
2023-05-06T11:14:08.037Z,1014.75
2023-05-06T11:15:08.166Z,1014.78
2023-05-06T11:16:07.948Z,1014.76
2023-05-06T11:17:08.024Z,1014.82
2023-05-06T11:18:08.137Z,1014.79
2023-05-06T11:19:07.955Z,1014.82
2023-05-06T11:20:08.051Z,1014.82
2023-05-06T11:21:07.948Z,1014.84
2023-05-06T11:22:07.969Z,1014.89
2023-05-06T11:23:07.947Z,1014.88
2023-05-06T11:24:07.944Z,1014.95
2023-05-06T11:25:07.957Z,1014.96
2023-05-06T11:26:07.951Z,1015.00
2023-05-06T11:27:07.949Z,1015.03
2023-05-06T11:28:07.946Z,1015.04
2023-05-06T11:29:07.957Z,1015.09
2023-05-06T11:30:08.361Z,1015.04
2023-05-06T11:31:08.095Z,1015.08
2023-05-06T11:32:07.951Z,1015.06
2023-05-06T11:33:07.980Z,1015.04
2023-05-06T11:34:07.941Z,1015.06
2023-05-06T11:35:07.944Z,1015.02
2023-05-06T11:36:07.940Z,1015.07
2023-05-06T11:37:07.979Z,1015.08
2023-05-06T11:38:07.967Z,1015.10
2023-05-06T11:39:07.955Z,1015.12
2023-05-06T11:40:07.961Z,1015.13
2023-05-06T11:41:07.941Z,1015.14
2023-05-06T11:42:07.944Z,1015.17
2023-05-06T11:43:07.942Z,1015.16
2023-05-06T11:44:09.244Z,1015.15
2023-05-06T11:45:07.941Z,1015.18
2023-05-06T11:46:08.208Z,1015.19
2023-05-06T11:47:07.957Z,1015.22
2023-05-06T11:48:07.956Z,1015.20
2023-05-06T11:49:07.957Z,1015.19
2023-05-06T11:50:07.969Z,1015.19
2023-05-06T11:51:07.944Z,1015.15
2023-05-06T11:52:07.938Z,1015.16
2023-05-06T11:53:07.936Z,1015.16
2023-05-06T11:54:07.946Z,1015.17
2023-05-06T11:55:07.936Z,1015.17
2023-05-06T11:56:07.945Z,1015.16
2023-05-06T11:57:07.941Z,1015.20
2023-05-06T11:58:07.932Z,1015.23
2023-05-06T11:59:07.935Z,1015.23
2023-05-06T12:00:08.023Z,1015.24
2023-05-06T12:01:07.935Z,1015.28
2023-05-06T12:02:08.023Z,1015.32
2023-05-06T12:03:08.033Z,1015.30
2023-05-06T12:04:08.188Z,1015.39
2023-05-06T12:05:07.932Z,1015.39